sensor_id;sensor_type;location;lat;lon;timestamp;P1;durP1;ratioP1;P2;durP2;ratioP2
46815;SDS011;32787;53.316;8.670;2023-06-10T00:00:12;14.43;;;4.47;;
46815;SDS011;32787;53.316;8.670;2023-06-10T00:02:40;11.45;;;4.05;;
46815;SDS011;32787;53.316;8.670;2023-06-10T00:05:06;12.27;;;4.53;;
46815;SDS011;32787;53.316;8.670;2023-06-10T00:07:36;10.60;;;4.28;;
46815;SDS011;32787;53.316;8.670;2023-06-10T00:10:06;16.55;;;4.88;;
46815;SDS011;32787;53.316;8.670;2023-06-10T00:12:32;13.82;;;4.78;;
46815;SDS011;32787;53.316;8.670;2023-06-10T00:15:02;14.95;;;4.78;;
46815;SDS011;32787;53.316;8.670;2023-06-10T00:17:29;12.52;;;4.43;;
46815;SDS011;32787;53.316;8.670;2023-06-10T00:19:55;13.80;;;4.50;;
46815;SDS011;32787;53.316;8.670;2023-06-10T00:22:22;12.88;;;4.30;;
46815;SDS011;32787;53.316;8.670;2023-06-10T00:24:50;11.07;;;4.55;;
46815;SDS011;32787;53.316;8.670;2023-06-10T00:27:16;14.25;;;4.72;;
46815;SDS011;32787;53.316;8.670;2023-06-10T00:29:42;11.45;;;4.43;;
46815;SDS011;32787;53.316;8.670;2023-06-10T00:32:09;13.30;;;5.10;;
46815;SDS011;32787;53.316;8.670;2023-06-10T00:34:34;14.35;;;4.90;;
46815;SDS011;32787;53.316;8.670;2023-06-10T00:37:00;17.92;;;5.32;;
46815;SDS011;32787;53.316;8.670;2023-06-10T00:39:26;12.82;;;4.80;;
46815;SDS011;32787;53.316;8.670;2023-06-10T00:41:52;16.75;;;4.75;;
46815;SDS011;32787;53.316;8.670;2023-06-10T00:44:17;17.17;;;5.68;;
46815;SDS011;32787;53.316;8.670;2023-06-10T00:46:43;12.48;;;4.63;;
46815;SDS011;32787;53.316;8.670;2023-06-10T00:49:09;13.90;;;4.78;;
46815;SDS011;32787;53.316;8.670;2023-06-10T00:51:35;12.70;;;4.72;;
46815;SDS011;32787;53.316;8.670;2023-06-10T00:54:01;15.45;;;5.15;;
46815;SDS011;32787;53.316;8.670;2023-06-10T00:56:28;13.98;;;5.60;;
46815;SDS011;32787;53.316;8.670;2023-06-10T00:58:53;18.10;;;5.47;;
46815;SDS011;32787;53.316;8.670;2023-06-10T01:01:19;13.93;;;5.32;;
46815;SDS011;32787;53.316;8.670;2023-06-10T01:03:45;13.18;;;5.43;;
46815;SDS011;32787;53.316;8.670;2023-06-10T01:06:27;14.13;;;5.35;;
46815;SDS011;32787;53.316;8.670;2023-06-10T01:09:22;16.20;;;5.20;;
46815;SDS011;32787;53.316;8.670;2023-06-10T01:12:01;16.25;;;5.00;;
46815;SDS011;32787;53.316;8.670;2023-06-10T01:14:33;15.65;;;5.70;;
46815;SDS011;32787;53.316;8.670;2023-06-10T01:17:00;20.10;;;6.28;;
46815;SDS011;32787;53.316;8.670;2023-06-10T01:19:28;18.40;;;6.30;;
46815;SDS011;32787;53.316;8.670;2023-06-10T01:21:56;14.35;;;5.60;;
46815;SDS011;32787;53.316;8.670;2023-06-10T01:24:25;15.82;;;6.22;;
46815;SDS011;32787;53.316;8.670;2023-06-10T01:26:52;14.00;;;6.03;;
46815;SDS011;32787;53.316;8.670;2023-06-10T01:29:26;15.13;;;5.90;;
46815;SDS011;32787;53.316;8.670;2023-06-10T01:32:06;15.30;;;5.38;;
46815;SDS011;32787;53.316;8.670;2023-06-10T01:34:37;14.95;;;5.65;;
46815;SDS011;32787;53.316;8.670;2023-06-10T01:37:07;16.75;;;5.93;;
46815;SDS011;32787;53.316;8.670;2023-06-10T01:39:35;14.88;;;5.72;;
46815;SDS011;32787;53.316;8.670;2023-06-10T01:42:01;12.10;;;5.20;;
46815;SDS011;32787;53.316;8.670;2023-06-10T01:44:28;14.20;;;5.20;;
46815;SDS011;32787;53.316;8.670;2023-06-10T01:46:54;20.92;;;6.82;;
46815;SDS011;32787;53.316;8.670;2023-06-10T01:49:19;14.95;;;6.10;;
46815;SDS011;32787;53.316;8.670;2023-06-10T01:51:47;11.43;;;5.13;;
46815;SDS011;32787;53.316;8.670;2023-06-10T01:54:12;19.27;;;6.50;;
46815;SDS011;32787;53.316;8.670;2023-06-10T01:56:38;15.15;;;6.65;;
46815;SDS011;32787;53.316;8.670;2023-06-10T01:59:04;15.30;;;6.28;;
46815;SDS011;32787;53.316;8.670;2023-06-10T02:01:29;15.70;;;6.32;;
46815;SDS011;32787;53.316;8.670;2023-06-10T02:03:55;11.13;;;5.57;;
46815;SDS011;32787;53.316;8.670;2023-06-10T02:06:21;17.55;;;6.65;;
46815;SDS011;32787;53.316;8.670;2023-06-10T02:08:46;21.70;;;7.13;;
46815;SDS011;32787;53.316;8.670;2023-06-10T02:11:12;16.17;;;6.90;;
46815;SDS011;32787;53.316;8.670;2023-06-10T02:13:38;15.73;;;6.20;;
46815;SDS011;32787;53.316;8.670;2023-06-10T02:16:04;16.77;;;6.82;;
46815;SDS011;32787;53.316;8.670;2023-06-10T02:18:31;17.25;;;6.95;;
46815;SDS011;32787;53.316;8.670;2023-06-10T02:20:56;16.70;;;7.13;;
46815;SDS011;32787;53.316;8.670;2023-06-10T02:23:22;17.42;;;6.70;;
46815;SDS011;32787;53.316;8.670;2023-06-10T02:25:48;17.60;;;6.53;;
46815;SDS011;32787;53.316;8.670;2023-06-10T02:28:13;18.70;;;7.05;;
46815;SDS011;32787;53.316;8.670;2023-06-10T02:30:40;15.80;;;6.72;;
46815;SDS011;32787;53.316;8.670;2023-06-10T02:33:06;14.98;;;6.65;;
46815;SDS011;32787;53.316;8.670;2023-06-10T02:35:38;17.13;;;6.70;;
46815;SDS011;32787;53.316;8.670;2023-06-10T02:38:04;17.92;;;6.93;;
46815;SDS011;32787;53.316;8.670;2023-06-10T02:40:30;19.23;;;6.57;;
46815;SDS011;32787;53.316;8.670;2023-06-10T02:42:56;14.27;;;6.53;;
46815;SDS011;32787;53.316;8.670;2023-06-10T02:45:22;20.25;;;7.20;;
46815;SDS011;32787;53.316;8.670;2023-06-10T02:47:48;17.90;;;6.68;;
46815;SDS011;32787;53.316;8.670;2023-06-10T02:50:13;14.75;;;6.68;;
46815;SDS011;32787;53.316;8.670;2023-06-10T02:52:39;19.38;;;6.38;;
46815;SDS011;32787;53.316;8.670;2023-06-10T02:55:05;16.75;;;7.00;;
46815;SDS011;32787;53.316;8.670;2023-06-10T02:57:31;14.80;;;6.75;;
46815;SDS011;32787;53.316;8.670;2023-06-10T02:59:57;20.33;;;6.97;;
46815;SDS011;32787;53.316;8.670;2023-06-10T03:02:23;19.90;;;6.95;;
46815;SDS011;32787;53.316;8.670;2023-06-10T03:04:53;17.27;;;6.55;;
46815;SDS011;32787;53.316;8.670;2023-06-10T03:07:20;16.23;;;7.57;;
46815;SDS011;32787;53.316;8.670;2023-06-10T03:09:46;17.67;;;7.68;;
46815;SDS011;32787;53.316;8.670;2023-06-10T03:12:12;13.88;;;6.95;;
46815;SDS011;32787;53.316;8.670;2023-06-10T03:14:37;15.95;;;5.95;;
46815;SDS011;32787;53.316;8.670;2023-06-10T03:17:04;15.98;;;6.80;;
46815;SDS011;32787;53.316;8.670;2023-06-10T03:19:30;15.70;;;6.95;;
46815;SDS011;32787;53.316;8.670;2023-06-10T03:22:08;16.40;;;6.93;;
46815;SDS011;32787;53.316;8.670;2023-06-10T03:24:39;17.65;;;7.60;;
46815;SDS011;32787;53.316;8.670;2023-06-10T03:27:06;17.75;;;7.22;;
46815;SDS011;32787;53.316;8.670;2023-06-10T03:29:38;14.02;;;6.80;;
46815;SDS011;32787;53.316;8.670;2023-06-10T03:32:04;16.80;;;7.28;;
46815;SDS011;32787;53.316;8.670;2023-06-10T03:34:30;16.27;;;7.00;;
46815;SDS011;32787;53.316;8.670;2023-06-10T03:36:56;15.95;;;6.93;;
46815;SDS011;32787;53.316;8.670;2023-06-10T03:39:23;17.05;;;6.70;;
46815;SDS011;32787;53.316;8.670;2023-06-10T03:41:49;14.48;;;6.68;;
46815;SDS011;32787;53.316;8.670;2023-06-10T03:44:15;16.00;;;6.00;;
46815;SDS011;32787;53.316;8.670;2023-06-10T03:46:41;18.83;;;6.95;;
46815;SDS011;32787;53.316;8.670;2023-06-10T03:49:06;13.07;;;6.30;;
46815;SDS011;32787;53.316;8.670;2023-06-10T03:51:32;17.25;;;6.25;;
46815;SDS011;32787;53.316;8.670;2023-06-10T03:53:59;17.58;;;6.38;;
46815;SDS011;32787;53.316;8.670;2023-06-10T03:56:24;13.27;;;5.57;;
46815;SDS011;32787;53.316;8.670;2023-06-10T03:58:50;15.55;;;6.18;;
46815;SDS011;32787;53.316;8.670;2023-06-10T04:01:16;13.13;;;5.90;;
46815;SDS011;32787;53.316;8.670;2023-06-10T04:03:43;15.85;;;6.05;;
46815;SDS011;32787;53.316;8.670;2023-06-10T04:06:09;14.55;;;5.45;;
46815;SDS011;32787;53.316;8.670;2023-06-10T04:08:34;21.15;;;6.72;;
46815;SDS011;32787;53.316;8.670;2023-06-10T04:11:01;16.83;;;5.70;;
46815;SDS011;32787;53.316;8.670;2023-06-10T04:13:27;13.45;;;5.20;;
46815;SDS011;32787;53.316;8.670;2023-06-10T04:15:53;14.48;;;5.65;;
46815;SDS011;32787;53.316;8.670;2023-06-10T04:18:19;12.15;;;5.82;;
46815;SDS011;32787;53.316;8.670;2023-06-10T04:20:46;12.98;;;5.20;;
46815;SDS011;32787;53.316;8.670;2023-06-10T04:23:12;12.77;;;4.85;;
46815;SDS011;32787;53.316;8.670;2023-06-10T04:25:38;11.73;;;5.07;;
46815;SDS011;32787;53.316;8.670;2023-06-10T04:28:03;12.05;;;4.80;;
46815;SDS011;32787;53.316;8.670;2023-06-10T04:30:29;15.23;;;4.80;;
46815;SDS011;32787;53.316;8.670;2023-06-10T04:32:56;15.38;;;4.80;;
46815;SDS011;32787;53.316;8.670;2023-06-10T04:35:22;12.63;;;4.35;;
46815;SDS011;32787;53.316;8.670;2023-06-10T04:37:48;13.32;;;4.10;;
46815;SDS011;32787;53.316;8.670;2023-06-10T04:40:13;12.20;;;3.80;;
46815;SDS011;32787;53.316;8.670;2023-06-10T04:42:40;14.05;;;4.47;;
46815;SDS011;32787;53.316;8.670;2023-06-10T04:45:06;12.70;;;4.38;;
46815;SDS011;32787;53.316;8.670;2023-06-10T04:47:33;13.93;;;3.75;;
46815;SDS011;32787;53.316;8.670;2023-06-10T04:49:59;10.95;;;3.80;;
46815;SDS011;32787;53.316;8.670;2023-06-10T04:52:26;14.00;;;3.97;;
46815;SDS011;32787;53.316;8.670;2023-06-10T04:54:52;15.05;;;3.85;;
46815;SDS011;32787;53.316;8.670;2023-06-10T04:57:18;10.25;;;4.07;;
46815;SDS011;32787;53.316;8.670;2023-06-10T04:59:45;8.50;;;3.47;;
46815;SDS011;32787;53.316;8.670;2023-06-10T05:02:11;13.55;;;4.00;;
46815;SDS011;32787;53.316;8.670;2023-06-10T05:04:36;9.70;;;3.80;;
46815;SDS011;32787;53.316;8.670;2023-06-10T05:07:02;12.10;;;3.67;;
46815;SDS011;32787;53.316;8.670;2023-06-10T05:09:28;13.57;;;3.58;;
46815;SDS011;32787;53.316;8.670;2023-06-10T05:11:55;15.70;;;3.92;;
46815;SDS011;32787;53.316;8.670;2023-06-10T05:14:20;9.45;;;3.13;;
46815;SDS011;32787;53.316;8.670;2023-06-10T05:16:47;11.68;;;3.58;;
46815;SDS011;32787;53.316;8.670;2023-06-10T05:19:12;11.40;;;3.60;;
46815;SDS011;32787;53.316;8.670;2023-06-10T05:21:38;10.77;;;3.60;;
46815;SDS011;32787;53.316;8.670;2023-06-10T05:24:04;7.57;;;3.17;;
46815;SDS011;32787;53.316;8.670;2023-06-10T05:26:30;9.57;;;3.35;;
46815;SDS011;32787;53.316;8.670;2023-06-10T05:28:58;9.55;;;3.20;;
46815;SDS011;32787;53.316;8.670;2023-06-10T05:31:23;10.38;;;2.88;;
46815;SDS011;32787;53.316;8.670;2023-06-10T05:33:49;10.23;;;3.15;;
46815;SDS011;32787;53.316;8.670;2023-06-10T05:36:15;14.05;;;3.55;;
46815;SDS011;32787;53.316;8.670;2023-06-10T05:38:40;10.07;;;3.30;;
46815;SDS011;32787;53.316;8.670;2023-06-10T05:41:06;11.80;;;3.13;;
46815;SDS011;32787;53.316;8.670;2023-06-10T05:43:32;12.32;;;3.50;;
46815;SDS011;32787;53.316;8.670;2023-06-10T05:45:57;14.38;;;4.00;;
46815;SDS011;32787;53.316;8.670;2023-06-10T05:48:23;10.20;;;3.22;;
46815;SDS011;32787;53.316;8.670;2023-06-10T05:50:49;11.90;;;3.95;;
46815;SDS011;32787;53.316;8.670;2023-06-10T05:53:15;11.95;;;3.58;;
46815;SDS011;32787;53.316;8.670;2023-06-10T05:55:42;13.05;;;3.90;;
46815;SDS011;32787;53.316;8.670;2023-06-10T05:58:08;9.75;;;3.20;;
46815;SDS011;32787;53.316;8.670;2023-06-10T06:00:34;10.60;;;4.05;;
46815;SDS011;32787;53.316;8.670;2023-06-10T06:03:00;11.00;;;4.28;;
46815;SDS011;32787;53.316;8.670;2023-06-10T06:05:25;13.55;;;4.07;;
46815;SDS011;32787;53.316;8.670;2023-06-10T06:07:51;10.10;;;3.92;;
46815;SDS011;32787;53.316;8.670;2023-06-10T06:10:17;11.95;;;4.97;;
46815;SDS011;32787;53.316;8.670;2023-06-10T06:12:43;13.23;;;4.72;;
46815;SDS011;32787;53.316;8.670;2023-06-10T06:15:10;12.88;;;4.45;;
46815;SDS011;32787;53.316;8.670;2023-06-10T06:17:36;18.77;;;5.28;;
46815;SDS011;32787;53.316;8.670;2023-06-10T06:20:02;12.07;;;4.90;;
46815;SDS011;32787;53.316;8.670;2023-06-10T06:22:29;9.82;;;5.05;;
46815;SDS011;32787;53.316;8.670;2023-06-10T06:24:55;12.20;;;5.13;;
46815;SDS011;32787;53.316;8.670;2023-06-10T06:27:20;14.10;;;5.07;;
46815;SDS011;32787;53.316;8.670;2023-06-10T06:29:46;13.98;;;5.18;;
46815;SDS011;32787;53.316;8.670;2023-06-10T06:32:12;12.93;;;5.18;;
46815;SDS011;32787;53.316;8.670;2023-06-10T06:34:37;14.65;;;5.18;;
46815;SDS011;32787;53.316;8.670;2023-06-10T06:37:03;14.88;;;4.60;;
46815;SDS011;32787;53.316;8.670;2023-06-10T06:39:29;15.15;;;5.43;;
46815;SDS011;32787;53.316;8.670;2023-06-10T06:41:55;13.18;;;5.20;;
46815;SDS011;32787;53.316;8.670;2023-06-10T06:44:20;10.38;;;4.95;;
46815;SDS011;32787;53.316;8.670;2023-06-10T06:46:46;11.10;;;4.70;;
46815;SDS011;32787;53.316;8.670;2023-06-10T06:49:12;13.18;;;4.82;;
46815;SDS011;32787;53.316;8.670;2023-06-10T06:51:37;14.05;;;4.82;;
46815;SDS011;32787;53.316;8.670;2023-06-10T06:54:03;13.90;;;5.30;;
46815;SDS011;32787;53.316;8.670;2023-06-10T06:56:30;14.15;;;4.90;;
46815;SDS011;32787;53.316;8.670;2023-06-10T06:58:56;12.68;;;5.00;;
46815;SDS011;32787;53.316;8.670;2023-06-10T07:01:22;12.00;;;4.38;;
46815;SDS011;32787;53.316;8.670;2023-06-10T07:03:47;11.55;;;4.65;;
46815;SDS011;32787;53.316;8.670;2023-06-10T07:06:13;14.07;;;5.00;;
46815;SDS011;32787;53.316;8.670;2023-06-10T07:08:38;11.52;;;4.20;;
46815;SDS011;32787;53.316;8.670;2023-06-10T07:11:04;12.10;;;4.97;;
46815;SDS011;32787;53.316;8.670;2023-06-10T07:13:30;11.77;;;4.72;;
46815;SDS011;32787;53.316;8.670;2023-06-10T07:15:55;13.25;;;4.88;;
46815;SDS011;32787;53.316;8.670;2023-06-10T07:18:21;10.38;;;4.30;;
46815;SDS011;32787;53.316;8.670;2023-06-10T07:20:46;12.10;;;4.40;;
46815;SDS011;32787;53.316;8.670;2023-06-10T07:23:12;12.18;;;3.88;;
46815;SDS011;32787;53.316;8.670;2023-06-10T07:25:38;14.25;;;3.90;;
46815;SDS011;32787;53.316;8.670;2023-06-10T07:28:03;11.25;;;4.32;;
46815;SDS011;32787;53.316;8.670;2023-06-10T07:30:29;14.07;;;3.65;;
46815;SDS011;32787;53.316;8.670;2023-06-10T07:32:55;12.95;;;3.70;;
46815;SDS011;32787;53.316;8.670;2023-06-10T07:35:21;17.10;;;3.95;;
46815;SDS011;32787;53.316;8.670;2023-06-10T07:37:47;14.52;;;4.18;;
46815;SDS011;32787;53.316;8.670;2023-06-10T07:40:12;12.35;;;4.13;;
46815;SDS011;32787;53.316;8.670;2023-06-10T07:42:38;10.95;;;4.28;;
46815;SDS011;32787;53.316;8.670;2023-06-10T07:45:04;11.98;;;3.88;;
46815;SDS011;32787;53.316;8.670;2023-06-10T07:47:30;9.65;;;3.47;;
46815;SDS011;32787;53.316;8.670;2023-06-10T07:49:58;11.75;;;3.72;;
46815;SDS011;32787;53.316;8.670;2023-06-10T07:52:23;10.77;;;3.17;;
46815;SDS011;32787;53.316;8.670;2023-06-10T07:54:50;10.32;;;3.50;;
46815;SDS011;32787;53.316;8.670;2023-06-10T07:57:16;12.52;;;3.78;;
46815;SDS011;32787;53.316;8.670;2023-06-10T07:59:42;11.85;;;3.53;;
46815;SDS011;32787;53.316;8.670;2023-06-10T08:02:09;12.65;;;3.67;;
46815;SDS011;32787;53.316;8.670;2023-06-10T08:04:35;12.43;;;3.78;;
46815;SDS011;32787;53.316;8.670;2023-06-10T08:07:01;11.23;;;3.55;;
46815;SDS011;32787;53.316;8.670;2023-06-10T08:09:27;12.65;;;3.60;;
46815;SDS011;32787;53.316;8.670;2023-06-10T08:11:53;10.45;;;4.05;;
46815;SDS011;32787;53.316;8.670;2023-06-10T08:14:19;12.93;;;3.42;;
46815;SDS011;32787;53.316;8.670;2023-06-10T08:16:44;11.23;;;3.28;;
46815;SDS011;32787;53.316;8.670;2023-06-10T08:19:10;10.07;;;3.53;;
46815;SDS011;32787;53.316;8.670;2023-06-10T08:21:36;14.55;;;3.72;;
46815;SDS011;32787;53.316;8.670;2023-06-10T08:24:04;13.55;;;3.60;;
46815;SDS011;32787;53.316;8.670;2023-06-10T08:26:34;9.70;;;3.50;;
46815;SDS011;32787;53.316;8.670;2023-06-10T08:29:00;11.23;;;3.67;;
46815;SDS011;32787;53.316;8.670;2023-06-10T08:31:25;8.60;;;3.30;;
46815;SDS011;32787;53.316;8.670;2023-06-10T08:33:51;11.02;;;3.92;;
46815;SDS011;32787;53.316;8.670;2023-06-10T08:36:17;11.20;;;3.70;;
46815;SDS011;32787;53.316;8.670;2023-06-10T08:38:42;9.05;;;2.88;;
46815;SDS011;32787;53.316;8.670;2023-06-10T08:41:08;9.85;;;3.30;;
46815;SDS011;32787;53.316;8.670;2023-06-10T08:43:55;12.20;;;3.33;;
46815;SDS011;32787;53.316;8.670;2023-06-10T08:46:29;10.38;;;3.20;;
46815;SDS011;32787;53.316;8.670;2023-06-10T08:48:57;13.55;;;3.58;;
46815;SDS011;32787;53.316;8.670;2023-06-10T08:51:27;11.45;;;3.42;;
46815;SDS011;32787;53.316;8.670;2023-06-10T08:54:18;12.77;;;3.35;;
46815;SDS011;32787;53.316;8.670;2023-06-10T08:56:48;14.57;;;3.78;;
46815;SDS011;32787;53.316;8.670;2023-06-10T08:59:16;9.02;;;3.72;;
46815;SDS011;32787;53.316;8.670;2023-06-10T09:01:42;11.23;;;3.67;;
46815;SDS011;32787;53.316;8.670;2023-06-10T09:04:09;9.35;;;3.15;;
46815;SDS011;32787;53.316;8.670;2023-06-10T09:06:36;9.07;;;2.80;;
46815;SDS011;32787;53.316;8.670;2023-06-10T09:09:04;11.52;;;4.00;;
46815;SDS011;32787;53.316;8.670;2023-06-10T09:11:31;8.30;;;3.40;;
46815;SDS011;32787;53.316;8.670;2023-06-10T09:13:57;10.00;;;3.28;;
46815;SDS011;32787;53.316;8.670;2023-06-10T09:16:23;12.60;;;3.33;;
46815;SDS011;32787;53.316;8.670;2023-06-10T09:18:51;10.05;;;3.22;;
46815;SDS011;32787;53.316;8.670;2023-06-10T09:21:23;11.68;;;3.28;;
46815;SDS011;32787;53.316;8.670;2023-06-10T09:23:49;12.48;;;3.55;;
46815;SDS011;32787;53.316;8.670;2023-06-10T09:26:15;9.80;;;3.00;;
46815;SDS011;32787;53.316;8.670;2023-06-10T09:28:44;10.15;;;3.25;;
46815;SDS011;32787;53.316;8.670;2023-06-10T09:31:13;9.43;;;3.13;;
46815;SDS011;32787;53.316;8.670;2023-06-10T09:33:43;7.68;;;3.30;;
46815;SDS011;32787;53.316;8.670;2023-06-10T09:36:09;9.13;;;3.42;;
46815;SDS011;32787;53.316;8.670;2023-06-10T09:38:35;10.02;;;3.40;;
46815;SDS011;32787;53.316;8.670;2023-06-10T09:41:02;13.85;;;3.25;;
46815;SDS011;32787;53.316;8.670;2023-06-10T09:43:42;10.73;;;3.30;;
46815;SDS011;32787;53.316;8.670;2023-06-10T09:46:15;10.45;;;3.50;;
46815;SDS011;32787;53.316;8.670;2023-06-10T09:48:45;12.13;;;2.90;;
46815;SDS011;32787;53.316;8.670;2023-06-10T09:51:13;12.85;;;3.40;;
46815;SDS011;32787;53.316;8.670;2023-06-10T09:53:40;10.35;;;3.08;;
46815;SDS011;32787;53.316;8.670;2023-06-10T09:56:05;9.68;;;3.72;;
46815;SDS011;32787;53.316;8.670;2023-06-10T09:58:38;10.20;;;3.35;;
46815;SDS011;32787;53.316;8.670;2023-06-10T10:01:13;8.90;;;3.33;;
46815;SDS011;32787;53.316;8.670;2023-06-10T10:03:50;8.48;;;3.08;;
46815;SDS011;32787;53.316;8.670;2023-06-10T10:06:16;12.57;;;3.22;;
46815;SDS011;32787;53.316;8.670;2023-06-10T10:08:47;8.38;;;3.30;;
46815;SDS011;32787;53.316;8.670;2023-06-10T10:11:14;9.13;;;3.03;;
46815;SDS011;32787;53.316;8.670;2023-06-10T10:13:42;13.25;;;3.25;;
46815;SDS011;32787;53.316;8.670;2023-06-10T10:16:11;8.73;;;3.08;;
46815;SDS011;32787;53.316;8.670;2023-06-10T10:18:41;10.27;;;2.90;;
46815;SDS011;32787;53.316;8.670;2023-06-10T10:21:11;15.30;;;3.47;;
46815;SDS011;32787;53.316;8.670;2023-06-10T10:23:48;9.18;;;2.80;;
46815;SDS011;32787;53.316;8.670;2023-06-10T10:28:48;8.27;;;3.00;;
46815;SDS011;32787;53.316;8.670;2023-06-10T10:31:25;9.43;;;3.20;;
46815;SDS011;32787;53.316;8.670;2023-06-10T10:33:55;9.70;;;2.90;;
46815;SDS011;32787;53.316;8.670;2023-06-10T10:36:24;7.00;;;2.70;;
46815;SDS011;32787;53.316;8.670;2023-06-10T10:38:50;8.98;;;3.03;;
46815;SDS011;32787;53.316;8.670;2023-06-10T10:41:17;8.70;;;3.10;;
46815;SDS011;32787;53.316;8.670;2023-06-10T10:43:44;9.38;;;3.28;;
46815;SDS011;32787;53.316;8.670;2023-06-10T10:46:12;11.98;;;2.90;;
46815;SDS011;32787;53.316;8.670;2023-06-10T10:48:39;10.20;;;3.03;;
46815;SDS011;32787;53.316;8.670;2023-06-10T10:51:06;9.65;;;2.72;;
46815;SDS011;32787;53.316;8.670;2023-06-10T10:53:32;9.52;;;2.97;;
46815;SDS011;32787;53.316;8.670;2023-06-10T10:55:59;9.65;;;2.88;;
46815;SDS011;32787;53.316;8.670;2023-06-10T10:58:34;8.25;;;2.60;;
46815;SDS011;32787;53.316;8.670;2023-06-10T11:01:00;9.48;;;2.65;;
46815;SDS011;32787;53.316;8.670;2023-06-10T11:03:45;8.73;;;3.00;;
46815;SDS011;32787;53.316;8.670;2023-06-10T11:06:14;7.90;;;2.38;;
46815;SDS011;32787;53.316;8.670;2023-06-10T11:11:27;6.40;;;2.60;;
46815;SDS011;32787;53.316;8.670;2023-06-10T11:16:27;8.93;;;2.47;;
46815;SDS011;32787;53.316;8.670;2023-06-10T11:18:54;7.18;;;2.63;;
46815;SDS011;32787;53.316;8.670;2023-06-10T11:21:20;7.82;;;2.30;;
46815;SDS011;32787;53.316;8.670;2023-06-10T11:23:47;9.55;;;2.80;;
46815;SDS011;32787;53.316;8.670;2023-06-10T11:31:23;9.00;;;2.15;;
46815;SDS011;32787;53.316;8.670;2023-06-10T11:33:52;6.32;;;2.55;;
46815;SDS011;32787;53.316;8.670;2023-06-10T11:36:23;6.60;;;2.25;;
46815;SDS011;32787;53.316;8.670;2023-06-10T11:38:49;6.90;;;2.30;;
46815;SDS011;32787;53.316;8.670;2023-06-10T11:41:18;7.35;;;2.45;;
46815;SDS011;32787;53.316;8.670;2023-06-10T11:43:44;9.10;;;2.75;;
46815;SDS011;32787;53.316;8.670;2023-06-10T11:46:10;7.13;;;2.83;;
46815;SDS011;32787;53.316;8.670;2023-06-10T11:48:37;9.00;;;2.80;;
46815;SDS011;32787;53.316;8.670;2023-06-10T11:51:06;6.20;;;2.17;;
46815;SDS011;32787;53.316;8.670;2023-06-10T11:53:32;6.45;;;2.40;;
46815;SDS011;32787;53.316;8.670;2023-06-10T11:55:58;6.63;;;2.40;;
46815;SDS011;32787;53.316;8.670;2023-06-10T11:58:24;7.75;;;2.40;;
46815;SDS011;32787;53.316;8.670;2023-06-10T12:00:50;8.60;;;2.80;;
46815;SDS011;32787;53.316;8.670;2023-06-10T12:03:23;6.85;;;2.28;;
46815;SDS011;32787;53.316;8.670;2023-06-10T12:06:00;8.02;;;2.25;;
46815;SDS011;32787;53.316;8.670;2023-06-10T12:08:27;7.72;;;1.95;;
46815;SDS011;32787;53.316;8.670;2023-06-10T12:10:54;7.00;;;2.30;;
46815;SDS011;32787;53.316;8.670;2023-06-10T12:13:20;5.38;;;2.00;;
46815;SDS011;32787;53.316;8.670;2023-06-10T12:15:48;6.93;;;2.38;;
46815;SDS011;32787;53.316;8.670;2023-06-10T12:18:17;8.10;;;2.35;;
46815;SDS011;32787;53.316;8.670;2023-06-10T12:20:47;8.00;;;2.60;;
46815;SDS011;32787;53.316;8.670;2023-06-10T12:23:14;5.75;;;2.17;;
46815;SDS011;32787;53.316;8.670;2023-06-10T12:25:49;6.50;;;2.30;;
46815;SDS011;32787;53.316;8.670;2023-06-10T12:28:16;6.78;;;2.55;;
46815;SDS011;32787;53.316;8.670;2023-06-10T12:30:45;7.35;;;2.47;;
46815;SDS011;32787;53.316;8.670;2023-06-10T12:33:20;5.38;;;2.10;;
46815;SDS011;32787;53.316;8.670;2023-06-10T12:35:50;6.35;;;2.45;;
46815;SDS011;32787;53.316;8.670;2023-06-10T12:38:24;6.10;;;1.98;;
46815;SDS011;32787;53.316;8.670;2023-06-10T12:40:53;5.63;;;2.03;;
46815;SDS011;32787;53.316;8.670;2023-06-10T12:43:19;6.45;;;2.45;;
46815;SDS011;32787;53.316;8.670;2023-06-10T12:45:46;5.63;;;1.95;;
46815;SDS011;32787;53.316;8.670;2023-06-10T12:48:16;6.78;;;2.40;;
46815;SDS011;32787;53.316;8.670;2023-06-10T12:50:52;6.28;;;2.03;;
46815;SDS011;32787;53.316;8.670;2023-06-10T12:53:19;8.35;;;2.30;;
46815;SDS011;32787;53.316;8.670;2023-06-10T12:55:46;7.15;;;2.50;;
46815;SDS011;32787;53.316;8.670;2023-06-10T12:58:12;5.43;;;2.17;;
46815;SDS011;32787;53.316;8.670;2023-06-10T13:00:38;4.93;;;2.20;;
46815;SDS011;32787;53.316;8.670;2023-06-10T13:03:05;6.47;;;2.50;;
46815;SDS011;32787;53.316;8.670;2023-06-10T13:05:32;5.63;;;1.90;;
46815;SDS011;32787;53.316;8.670;2023-06-10T13:07:58;7.10;;;2.28;;
46815;SDS011;32787;53.316;8.670;2023-06-10T13:10:24;8.23;;;2.50;;
46815;SDS011;32787;53.316;8.670;2023-06-10T13:12:50;7.00;;;2.50;;
46815;SDS011;32787;53.316;8.670;2023-06-10T13:15:16;6.70;;;2.47;;
46815;SDS011;32787;53.316;8.670;2023-06-10T13:17:43;5.50;;;2.30;;
46815;SDS011;32787;53.316;8.670;2023-06-10T13:20:10;8.30;;;2.65;;
46815;SDS011;32787;53.316;8.670;2023-06-10T13:22:36;4.88;;;2.40;;
46815;SDS011;32787;53.316;8.670;2023-06-10T13:25:02;7.43;;;2.58;;
46815;SDS011;32787;53.316;8.670;2023-06-10T13:27:30;5.50;;;2.08;;
46815;SDS011;32787;53.316;8.670;2023-06-10T13:29:55;9.35;;;2.22;;
46815;SDS011;32787;53.316;8.670;2023-06-10T13:32:21;6.32;;;2.38;;
46815;SDS011;32787;53.316;8.670;2023-06-10T13:34:47;6.05;;;2.13;;
46815;SDS011;32787;53.316;8.670;2023-06-10T13:37:14;7.63;;;2.72;;
46815;SDS011;32787;53.316;8.670;2023-06-10T13:39:42;6.72;;;2.55;;
46815;SDS011;32787;53.316;8.670;2023-06-10T13:42:08;6.35;;;2.60;;
46815;SDS011;32787;53.316;8.670;2023-06-10T13:44:34;5.38;;;2.28;;
46815;SDS011;32787;53.316;8.670;2023-06-10T13:47:01;7.50;;;2.58;;
46815;SDS011;32787;53.316;8.670;2023-06-10T13:49:28;5.43;;;2.30;;
46815;SDS011;32787;53.316;8.670;2023-06-10T13:51:54;7.85;;;3.28;;
46815;SDS011;32787;53.316;8.670;2023-06-10T13:54:19;8.43;;;2.95;;
46815;SDS011;32787;53.316;8.670;2023-06-10T13:56:46;6.95;;;2.40;;
46815;SDS011;32787;53.316;8.670;2023-06-10T13:59:12;7.95;;;2.30;;
46815;SDS011;32787;53.316;8.670;2023-06-10T14:01:37;6.53;;;2.45;;
46815;SDS011;32787;53.316;8.670;2023-06-10T14:04:03;8.18;;;2.60;;
46815;SDS011;32787;53.316;8.670;2023-06-10T14:06:29;5.95;;;2.70;;
46815;SDS011;32787;53.316;8.670;2023-06-10T14:08:55;7.15;;;2.40;;
46815;SDS011;32787;53.316;8.670;2023-06-10T14:11:21;6.22;;;2.60;;
46815;SDS011;32787;53.316;8.670;2023-06-10T14:13:47;7.63;;;2.95;;
46815;SDS011;32787;53.316;8.670;2023-06-10T14:16:12;8.25;;;3.30;;
46815;SDS011;32787;53.316;8.670;2023-06-10T14:18:38;6.70;;;2.60;;
46815;SDS011;32787;53.316;8.670;2023-06-10T14:21:04;7.35;;;2.80;;
46815;SDS011;32787;53.316;8.670;2023-06-10T14:23:30;4.63;;;2.45;;
46815;SDS011;32787;53.316;8.670;2023-06-10T14:25:55;7.05;;;2.65;;
46815;SDS011;32787;53.316;8.670;2023-06-10T14:28:21;7.15;;;3.22;;
46815;SDS011;32787;53.316;8.670;2023-06-10T14:30:47;6.60;;;2.78;;
46815;SDS011;32787;53.316;8.670;2023-06-10T14:33:13;7.75;;;2.92;;
46815;SDS011;32787;53.316;8.670;2023-06-10T14:35:39;7.65;;;3.00;;
46815;SDS011;32787;53.316;8.670;2023-06-10T14:38:05;5.97;;;2.95;;
46815;SDS011;32787;53.316;8.670;2023-06-10T14:40:30;6.07;;;2.72;;
46815;SDS011;32787;53.316;8.670;2023-06-10T14:42:57;10.35;;;3.15;;
46815;SDS011;32787;53.316;8.670;2023-06-10T14:45:22;6.03;;;2.95;;
46815;SDS011;32787;53.316;8.670;2023-06-10T14:47:50;6.90;;;3.15;;
46815;SDS011;32787;53.316;8.670;2023-06-10T14:50:15;8.50;;;3.20;;